Time;durP1;ratioP1;P1;durP2;ratioP2;P2;SDS_P1;SDS_P2;PMS_P1;PMS_P2;Temp;Humidity;BMP_temperature;BMP_pressure;BME280_temperature;BME280_humidity;BME280_pressure;Samples;Min_cycle;Max_cycle;Signal;HPM_P1;HPM_P2
2022/03/22 00:00:55;;;;;;;7.88;5.05;;;13.30;65.70;;;;;;5046740;28;20099;-79
2022/03/22 00:03:24;;;;;;;9.45;5.10;;;13.30;65.80;;;;;;5036864;28;20416;-79
2022/03/22 00:05:50;;;;;;;8.02;5.20;;;13.20;65.90;;;;;;5036712;28;20060;-79
2022/03/22 00:08:15;;;;;;;9.82;5.10;;;13.10;66.10;;;;;;5036556;28;20499;-79
2022/03/22 00:10:41;;;;;;;9.13;5.10;;;13.00;66.10;;;;;;5038635;28;20038;-79
2022/03/22 00:13:07;;;;;;;9.70;5.60;;;13.10;66.00;;;;;;5055429;28;20024;-79
2022/03/22 00:15:34;;;;;;;9.48;5.50;;;13.00;66.10;;;;;;5054784;28;20040;-79
2022/03/22 00:17:59;;;;;;;9.23;5.82;;;13.00;66.10;;;;;;5055353;28;20070;-79
2022/03/22 00:20:25;;;;;;;9.07;5.53;;;12.90;66.00;;;;;;5055414;28;20557;-79
2022/03/22 00:22:51;;;;;;;8.95;5.60;;;13.00;66.00;;;;;;5056541;28;20475;-79
2022/03/22 00:25:17;;;;;;;8.93;5.78;;;13.00;65.80;;;;;;5044106;28;20133;-79
2022/03/22 00:27:57;;;;;;;10.77;5.80;;;12.90;65.90;;;;;;5038679;28;20553;-79
2022/03/22 00:30:27;;;;;;;8.27;6.03;;;12.90;66.00;;;;;;5036470;28;20025;-79
2022/03/22 00:32:54;;;;;;;10.05;6.13;;;12.90;66.10;;;;;;5054953;28;20387;-79
2022/03/22 00:35:25;;;;;;;9.35;6.20;;;12.90;66.20;;;;;;5056454;28;20104;-79
2022/03/22 00:37:53;;;;;;;9.00;6.00;;;12.80;66.30;;;;;;5056291;28;20093;-79
2022/03/22 00:40:20;;;;;;;8.68;5.68;;;12.80;66.50;;;;;;5040597;28;20075;-79
2022/03/22 00:42:47;;;;;;;8.88;5.93;;;12.80;66.70;;;;;;5034536;28;20021;-79
2022/03/22 00:45:16;;;;;;;10.45;6.05;;;12.70;66.90;;;;;;5036644;28;20034;-79
2022/03/22 00:47:47;;;;;;;10.18;6.93;;;12.70;66.80;;;;;;5044865;28;20021;-79
2022/03/22 00:50:14;;;;;;;12.43;7.15;;;12.70;67.10;;;;;;5036334;28;20455;-79
2022/03/22 00:52:40;;;;;;;10.52;6.65;;;12.60;67.20;;;;;;5036258;28;20022;-79
2022/03/22 00:55:07;;;;;;;10.55;6.90;;;12.60;66.90;;;;;;5035028;28;20057;-79
2022/03/22 00:57:34;;;;;;;11.43;7.00;;;12.50;67.10;;;;;;5035904;28;20018;-79
2022/03/22 01:00:06;;;;;;;9.45;7.05;;;12.60;66.90;;;;;;5044582;28;20059;-79
2022/03/22 01:02:37;;;;;;;9.27;7.18;;;12.50;67.10;;;;;;5034834;28;20503;-79
2022/03/22 01:05:06;;;;;;;12.32;6.82;;;12.50;67.10;;;;;;5038115;28;20037;-79
2022/03/22 01:07:33;;;;;;;16.88;7.15;;;12.40;67.10;;;;;;5034529;28;20033;-79
2022/03/22 01:10:05;;;;;;;10.60;7.25;;;12.40;67.00;;;;;;5035637;28;20033;-79
2022/03/22 01:12:35;;;;;;;15.30;7.97;;;12.30;67.30;;;;;;5035828;28;20013;-79
2022/03/22 01:15:06;;;;;;;12.07;7.45;;;12.30;67.20;;;;;;5034322;28;20510;-79
2022/03/22 01:17:33;;;;;;;10.98;7.28;;;12.30;67.20;;;;;;5035494;28;20053;-79
2022/03/22 01:19:59;;;;;;;13.13;8.50;;;12.20;67.10;;;;;;5035536;28;20028;-79
2022/03/22 01:22:25;;;;;;;10.48;8.23;;;12.20;67.10;;;;;;5035540;28;20034;-79
2022/03/22 01:24:53;;;;;;;14.32;7.88;;;12.20;66.90;;;;;;5035555;28;20029;-79
2022/03/22 01:27:22;;;;;;;11.48;7.80;;;12.00;67.00;;;;;;5034405;28;20087;-79
2022/03/22 01:29:49;;;;;;;11.95;8.95;;;12.00;67.10;;;;;;5035605;28;20036;-79
2022/03/22 01:32:15;;;;;;;13.82;7.93;;;11.90;67.00;;;;;;5034396;28;20060;-79
2022/03/22 01:34:42;;;;;;;12.48;8.30;;;12.00;66.90;;;;;;5034105;28;20441;-79
2022/03/22 01:37:09;;;;;;;10.20;7.80;;;12.00;66.80;;;;;;5035014;28;20373;-80
2022/03/22 01:39:35;;;;;;;13.00;9.10;;;11.90;66.60;;;;;;5035179;28;20068;-79
2022/03/22 01:42:01;;;;;;;15.52;8.82;;;11.90;66.80;;;;;;5033896;28;20483;-79
2022/03/22 01:44:28;;;;;;;11.98;8.18;;;11.90;66.60;;;;;;5033945;28;20547;-79
2022/03/22 01:46:58;;;;;;;16.92;8.65;;;11.80;66.50;;;;;;5035649;28;20025;-79
2022/03/22 01:49:24;;;;;;;12.90;8.80;;;11.80;66.40;;;;;;5053851;28;20035;-79
2022/03/22 01:51:52;;;;;;;13.65;8.82;;;11.70;66.60;;;;;;5055273;28;20402;-79
2022/03/22 01:54:18;;;;;;;12.73;8.88;;;11.70;66.80;;;;;;5053650;28;20527;-79
2022/03/22 01:56:44;;;;;;;14.48;8.50;;;11.80;66.60;;;;;;5055011;28;20109;-79
2022/03/22 01:59:10;;;;;;;14.85;8.90;;;11.70;66.40;;;;;;5055000;28;20041;-79
2022/03/22 02:07:09;;;;;;;14.13;9.55;;;11.70;66.60;;;;;;5055357;28;20093;-79
2022/03/22 02:09:34;;;;;;;14.02;8.85;;;11.60;66.60;;;;;;5054995;28;20029;-79
2022/03/22 02:12:00;;;;;;;12.73;8.93;;;11.60;66.50;;;;;;5054897;28;20022;-79
2022/03/22 02:14:27;;;;;;;14.68;9.25;;;11.50;66.70;;;;;;5052338;28;20033;-79
2022/03/22 02:16:52;;;;;;;14.55;10.25;;;11.50;66.70;;;;;;5057933;28;20021;-79
2022/03/22 02:19:18;;;;;;;16.42;9.25;;;11.50;66.50;;;;;;5040735;28;20033;-78
2022/03/22 02:21:46;;;;;;;15.05;9.40;;;11.40;66.80;;;;;;5039021;28;20030;-79
2022/03/22 02:24:11;;;;;;;16.05;9.07;;;11.40;66.50;;;;;;5039042;28;20059;-79
2022/03/22 02:26:38;;;;;;;12.70;8.70;;;11.40;66.60;;;;;;5058990;28;20162;-79
2022/03/22 02:29:03;;;;;;;16.13;9.20;;;11.40;66.40;;;;;;5059075;28;20111;-79
2022/03/22 02:31:30;;;;;;;13.30;8.93;;;11.40;66.40;;;;;;5053324;28;20045;-79
2022/03/22 02:33:57;;;;;;;16.20;9.10;;;11.30;66.40;;;;;;5038613;28;20022;-79
2022/03/22 02:36:23;;;;;;;14.05;9.38;;;11.30;66.50;;;;;;5038828;28;20025;-79
2022/03/22 02:38:51;;;;;;;14.05;9.63;;;11.20;66.70;;;;;;5038757;28;20476;-79
2022/03/22 02:41:24;;;;;;;15.48;10.38;;;11.10;66.90;;;;;;5037191;28;20080;-79
2022/03/22 02:43:51;;;;;;;18.13;10.73;;;11.00;67.10;;;;;;5038548;28;20041;-79
2022/03/22 02:46:17;;;;;;;15.77;9.65;;;11.00;67.20;;;;;;5038517;28;20033;-79
2022/03/22 02:48:43;;;;;;;16.08;9.30;;;11.00;67.30;;;;;;5054064;28;20035;-79
2022/03/22 02:51:10;;;;;;;15.27;9.88;;;11.10;67.20;;;;;;5057919;28;20028;-79
2022/03/22 02:53:36;;;;;;;17.70;11.48;;;11.00;67.10;;;;;;5057411;28;20036;-78
2022/03/22 02:56:02;;;;;;;14.75;9.73;;;11.00;67.00;;;;;;5038499;28;20400;-79
2022/03/22 02:58:28;;;;;;;14.75;9.73;;;10.90;67.20;;;;;;5053540;28;20104;-79
2022/03/22 03:00:54;;;;;;;17.92;10.25;;;10.90;67.20;;;;;;5054378;28;20106;-79
2022/03/22 03:03:22;;;;;;;17.25;9.63;;;10.90;67.10;;;;;;5038277;28;20039;-78
2022/03/22 03:05:51;;;;;;;15.32;9.75;;;10.90;66.80;;;;;;5053359;28;20025;-80
2022/03/22 03:08:17;;;;;;;18.67;10.40;;;10.90;66.70;;;;;;5038209;28;20104;-79
2022/03/22 03:10:43;;;;;;;17.48;10.57;;;10.80;66.90;;;;;;5038642;28;20026;-79
2022/03/22 03:13:09;;;;;;;20.63;11.52;;;10.80;67.00;;;;;;5057962;28;20078;-79
2022/03/22 03:15:35;;;;;;;18.40;10.50;;;10.80;66.90;;;;;;5056569;28;20029;-79
2022/03/22 03:18:00;;;;;;;17.42;11.38;;;10.70;66.90;;;;;;5052201;28;20214;-79
2022/03/22 03:20:26;;;;;;;16.20;10.07;;;10.70;67.10;;;;;;5038054;28;20040;-79
2022/03/22 03:22:52;;;;;;;17.70;9.43;;;10.60;67.00;;;;;;5037800;28;20100;-78
2022/03/22 03:25:18;;;;;;;16.42;10.13;;;10.50;67.10;;;;;;5048656;28;20036;-79
2022/03/22 03:27:44;;;;;;;15.60;9.85;;;10.50;67.40;;;;;;5037160;28;20045;-78
2022/03/22 03:30:10;;;;;;;18.02;9.20;;;10.50;67.10;;;;;;5037137;28;20242;-79
2022/03/22 03:32:36;;;;;;;14.93;10.57;;;10.50;67.00;;;;;;5036597;28;20061;-79
2022/03/22 03:35:04;;;;;;;17.08;10.70;;;10.50;66.60;;;;;;5037753;28;20029;-79
2022/03/22 03:37:37;;;;;;;17.20;10.50;;;10.50;66.50;;;;;;5037544;28;20049;-78
2022/03/22 03:40:04;;;;;;;15.40;9.55;;;10.50;66.30;;;;;;5037350;28;20029;-79
2022/03/22 03:42:30;;;;;;;20.33;11.43;;;10.50;66.30;;;;;;5037525;28;20026;-79
2022/03/22 03:47:40;;;;;;;17.75;10.80;;;10.50;66.00;;;;;;5044783;28;20044;-79
2022/03/22 03:50:07;;;;;;;13.82;9.93;;;10.40;66.10;;;;;;5055420;28;20419;-79
2022/03/22 03:52:37;;;;;;;14.07;9.40;;;10.30;66.00;;;;;;5057279;28;20025;-79
2022/03/22 03:55:07;;;;;;;16.45;9.77;;;10.30;65.90;;;;;;5037681;28;20025;-79
2022/03/22 03:57:35;;;;;;;17.05;10.85;;;10.30;66.00;;;;;;5037270;28;20030;-79
2022/03/22 04:00:01;;;;;;;15.57;9.10;;;10.30;65.90;;;;;;5047501;28;20037;-79
2022/03/22 04:02:26;;;;;;;15.00;9.85;;;10.30;65.90;;;;;;5055687;28;20040;-78
2022/03/22 04:04:52;;;;;;;15.80;9.98;;;10.30;65.80;;;;;;5056980;28;20029;-78
2022/03/22 04:07:20;;;;;;;17.83;10.25;;;10.20;66.20;;;;;;5050707;28;20037;-78
2022/03/22 04:09:46;;;;;;;18.25;9.95;;;10.10;66.30;;;;;;5036866;28;20051;-79
2022/03/22 04:12:14;;;;;;;16.42;10.32;;;10.10;65.70;;;;;;5052153;28;20388;-79
2022/03/22 04:14:40;;;;;;;17.65;9.82;;;10.00;65.70;;;;;;5054618;28;20384;-79
2022/03/22 04:17:08;;;;;;;16.13;11.02;;;10.00;65.60;;;;;;5056816;28;20108;-79
2022/03/22 04:19:34;;;;;;;17.52;9.40;;;10.10;65.50;;;;;;5047788;28;20053;-79
2022/03/22 04:22:00;;;;;;;15.95;9.60;;;10.00;65.50;;;;;;5036776;28;20088;-79
2022/03/22 04:24:26;;;;;;;20.85;11.77;;;10.00;65.50;;;;;;5036540;28;20079;-79
2022/03/22 04:26:52;;;;;;;16.58;10.07;;;9.90;65.70;;;;;;5043698;28;20036;-78
2022/03/22 04:34:47;;;;;;;16.90;9.73;;;9.90;65.20;;;;;;5052726;28;20024;-78
2022/03/22 04:37:15;;;;;;;17.00;9.75;;;9.90;65.30;;;;;;5035075;28;20026;-79
2022/03/22 04:39:46;;;;;;;14.18;9.43;;;9.90;65.30;;;;;;5033763;28;20026;-79
2022/03/22 04:42:15;;;;;;;13.80;9.57;;;9.90;65.30;;;;;;5034642;28;20056;-79
2022/03/22 04:44:43;;;;;;;13.68;10.00;;;9.80;65.30;;;;;;5034973;28;20505;-79
2022/03/22 04:47:09;;;;;;;15.75;10.60;;;9.70;65.90;;;;;;5039133;28;20033;-79
2022/03/22 04:49:35;;;;;;;15.80;10.02;;;9.70;65.60;;;;;;5047337;28;20413;-79
2022/03/22 04:57:29;;;;;;;17.45;9.82;;;9.70;65.30;;;;;;5036118;28;20036;-79
2022/03/22 04:59:55;;;;;;;16.85;9.77;;;9.70;65.40;;;;;;5044065;28;20465;-79
2022/03/22 05:02:21;;;;;;;13.57;9.27;;;9.60;65.20;;;;;;5046226;28;20085;-78
2022/03/22 05:04:47;;;;;;;17.52;9.68;;;9.60;64.50;;;;;;5047521;28;20025;-79
2022/03/22 05:07:13;;;;;;;16.85;9.65;;;9.50;64.20;;;;;;5055978;28;20029;-78
2022/03/22 05:09:38;;;;;;;15.60;10.23;;;9.60;63.90;;;;;;5054342;28;20029;-78
2022/03/22 05:12:04;;;;;;;15.80;9.27;;;9.50;63.70;;;;;;5043132;28;20032;-78
2022/03/22 05:14:31;;;;;;;13.65;9.85;;;9.50;63.30;;;;;;5035832;28;20068;-79
2022/03/22 05:16:58;;;;;;;13.07;8.60;;;9.50;63.30;;;;;;5050373;28;20079;-79
2022/03/22 05:19:24;;;;;;;14.52;8.85;;;9.50;63.10;;;;;;5039484;28;20017;-87
2022/03/22 05:21:50;;;;;;;16.35;10.02;;;9.50;62.80;;;;;;5033912;28;20029;-83
2022/03/22 05:24:16;;;;;;;16.35;9.75;;;9.50;62.90;;;;;;5035847;28;20048;-79
2022/03/22 05:26:41;;;;;;;15.30;9.68;;;9.60;62.80;;;;;;5035490;28;20028;-80
2022/03/22 05:29:07;;;;;;;14.80;9.32;;;9.50;63.30;;;;;;5034012;28;20029;-80
2022/03/22 05:31:34;;;;;;;16.35;8.73;;;9.50;63.00;;;;;;5033919;28;20384;-78
2022/03/22 05:34:00;;;;;;;15.38;9.30;;;9.40;62.90;;;;;;5034239;28;20032;-77
2022/03/22 05:36:27;;;;;;;14.48;9.52;;;9.40;63.10;;;;;;5034017;28;20030;-80
2022/03/22 05:38:53;;;;;;;15.32;9.80;;;9.30;63.20;;;;;;5034459;28;20035;-78
2022/03/22 05:41:20;;;;;;;18.75;10.07;;;9.40;63.20;;;;;;5054525;28;20052;-80
2022/03/22 05:43:46;;;;;;;14.05;9.70;;;9.40;63.10;;;;;;5053898;28;20433;-78
2022/03/22 05:46:15;;;;;;;15.82;10.40;;;9.30;63.20;;;;;;5036991;28;20021;-77
2022/03/22 05:48:40;;;;;;;15.35;8.75;;;9.30;63.20;;;;;;5051819;28;20036;-75
2022/03/22 05:51:06;;;;;;;16.27;10.30;;;9.30;63.20;;;;;;5054761;28;20025;-77
2022/03/22 05:53:32;;;;;;;17.55;9.90;;;9.20;62.90;;;;;;5055068;28;20025;-76
2022/03/22 05:55:58;;;;;;;19.63;10.93;;;9.30;62.90;;;;;;5043224;28;20101;-76
2022/03/22 05:58:23;;;;;;;21.67;9.52;;;9.20;62.50;;;;;;5052614;28;20056;-76
2022/03/22 06:00:51;;;;;;;15.35;9.68;;;9.30;62.30;;;;;;5052672;28;20045;-75
2022/03/22 06:03:16;;;;;;;17.30;9.00;;;9.30;62.40;;;;;;5038817;28;20039;-75
2022/03/22 06:05:42;;;;;;;17.88;9.77;;;9.20;62.20;;;;;;5046447;28;20021;-75
2022/03/22 06:08:08;;;;;;;20.23;11.00;;;9.30;62.00;;;;;;5042658;28;20053;-75
2022/03/22 06:10:34;;;;;;;13.80;8.38;;;9.30;61.90;;;;;;5034962;28;21728;-77
2022/03/22 06:13:00;;;;;;;16.48;9.73;;;9.20;61.80;;;;;;5043689;28;20043;-76
2022/03/22 06:15:30;;;;;;;13.02;9.18;;;9.30;61.70;;;;;;5034365;28;20078;-75
2022/03/22 06:17:57;;;;;;;15.02;9.82;;;9.20;61.60;;;;;;5042807;28;20029;-75
2022/03/22 06:20:31;;;;;;;16.08;9.02;;;9.20;61.70;;;;;;5044272;28;20052;-75
2022/03/22 06:22:57;;;;;;;14.60;9.00;;;9.20;61.70;;;;;;5041615;28;20040;-75
2022/03/22 06:25:24;;;;;;;19.45;10.60;;;9.20;61.50;;;;;;5050077;28;20081;-77
2022/03/22 06:27:52;;;;;;;13.70;9.48;;;9.20;61.50;;;;;;5035387;28;20029;-79
2022/03/22 06:30:18;;;;;;;13.90;9.00;;;9.20;61.30;;;;;;5037626;28;20687;-78
2022/03/22 06:32:57;;;;;;;18.70;9.27;;;9.20;61.40;;;;;;5040721;28;20037;-78
2022/03/22 06:35:25;;;;;;;14.35;9.10;;;9.30;61.00;;;;;;5038369;28;20037;-81
2022/03/22 06:37:51;;;;;;;15.57;8.93;;;9.30;60.70;;;;;;5039095;28;20032;-80
2022/03/22 06:40:20;;;;;;;19.13;9.30;;;9.30;60.40;;;;;;5042510;28;20032;-81
2022/03/22 06:42:47;;;;;;;16.92;9.38;;;9.30;60.20;;;;;;5043289;28;20022;-81
2022/03/22 06:45:13;;;;;;;15.02;9.70;;;9.30;60.10;;;;;;5043023;28;20029;-81
2022/03/22 06:47:40;;;;;;;12.80;8.57;;;9.50;59.60;;;;;;5045439;28;20443;-80
2022/03/22 06:50:08;;;;;;;16.88;9.88;;;9.60;59.30;;;;;;5054324;28;20521;-80
2022/03/22 06:52:34;;;;;;;14.77;9.63;;;9.70;59.10;;;;;;5054158;28;20066;-80
2022/03/22 06:55:00;;;;;;;13.00;9.52;;;9.60;58.80;;;;;;5052972;28;20021;-81
2022/03/22 06:57:28;;;;;;;14.18;10.30;;;9.60;58.40;;;;;;5054599;28;20037;-82
2022/03/22 06:59:55;;;;;;;16.17;8.75;;;9.60;58.10;;;;;;5054348;28;20132;-80
2022/03/22 07:02:20;;;;;;;13.45;8.35;;;9.70;58.30;;;;;;5037408;28;20135;-80
2022/03/22 07:04:47;;;;;;;19.95;9.93;;;9.80;57.70;;;;;;5036348;28;20041;-80
2022/03/22 07:07:12;;;;;;;12.93;8.50;;;10.20;56.40;;;;;;5038139;28;20056;-80
2022/03/22 07:09:38;;;;;;;14.80;9.02;;;11.10;53.80;;;;;;5038191;28;20029;-81
2022/03/22 07:12:04;;;;;;;12.95;8.63;;;11.80;51.30;;;;;;5043418;28;20030;-81
2022/03/22 07:14:30;;;;;;;12.27;7.95;;;12.30;50.30;;;;;;5036715;28;20032;-81
2022/03/22 07:16:56;;;;;;;18.15;9.25;;;12.50;49.30;;;;;;5038299;28;20025;-81
2022/03/22 07:19:23;;;;;;;16.70;8.63;;;12.70;48.20;;;;;;5038086;28;20044;-81
2022/03/22 07:21:50;;;;;;;10.70;7.57;;;13.20;47.00;;;;;;5038238;28;20479;-81
2022/03/22 07:24:20;;;;;;;13.02;8.55;;;13.30;46.10;;;;;;5036640;28;20053;-81
2022/03/22 07:26:46;;;;;;;13.25;9.18;;;13.50;45.40;;;;;;5037771;28;20017;-81
2022/03/22 07:29:13;;;;;;;13.05;7.70;;;13.40;45.30;;;;;;5037433;28;20017;-81
2022/03/22 07:31:39;;;;;;;13.52;8.80;;;13.70;45.40;;;;;;5036485;28;20506;-81
2022/03/22 07:34:06;;;;;;;17.00;8.85;;;14.20;44.10;;;;;;5037693;28;20487;-80
2022/03/22 07:36:35;;;;;;;10.23;8.40;;;14.80;42.20;;;;;;5037770;28;20040;-81
2022/03/22 07:39:01;;;;;;;16.03;9.23;;;15.30;40.90;;;;;;5037690;28;20026;-81
2022/03/22 07:41:27;;;;;;;13.73;8.32;;;15.40;40.10;;;;;;5036353;28;20036;-81
2022/03/22 07:43:54;;;;;;;10.68;7.28;;;15.40;39.70;;;;;;5037558;28;20084;-81
2022/03/22 07:46:26;;;;;;;10.80;8.43;;;15.40;39.60;;;;;;5037032;28;20630;-81
2022/03/22 07:48:52;;;;;;;15.80;8.43;;;15.90;38.80;;;;;;5055904;28;20460;-81
2022/03/22 07:54:03;;;;;;;12.45;8.18;;;16.80;37.00;;;;;;5037433;28;20424;-81
2022/03/22 07:56:32;;;;;;;13.73;8.30;;;17.20;35.50;;;;;;5037034;28;20056;-82
2022/03/22 07:58:58;;;;;;;10.63;8.13;;;17.30;34.90;;;;;;5038671;28;20057;-81
2022/03/22 08:01:24;;;;;;;10.07;7.57;;;17.80;33.90;;;;;;5056540;28;20033;-81
2022/03/22 08:03:50;;;;;;;11.43;8.52;;;18.20;34.10;;;;;;5036679;28;20108;-81
2022/03/22 08:06:16;;;;;;;12.90;8.52;;;18.30;33.40;;;;;;5037174;28;20033;-81
2022/03/22 08:08:44;;;;;;;13.80;8.48;;;18.30;32.90;;;;;;5037279;28;20026;-81
2022/03/22 08:11:10;;;;;;;11.30;8.20;;;18.60;32.50;;;;;;5043088;28;20021;-81
2022/03/22 08:13:37;;;;;;;11.10;8.38;;;19.00;32.30;;;;;;5056766;28;20476;-81
2022/03/22 08:16:04;;;;;;;11.32;8.68;;;19.40;31.20;;;;;;5055536;28;20036;-81
2022/03/22 08:18:30;;;;;;;10.27;7.30;;;19.40;30.90;;;;;;5057068;28;20021;-81
2022/03/22 08:20:56;;;;;;;12.40;7.75;;;19.10;31.40;;;;;;5043425;28;20061;-81
2022/03/22 08:23:22;;;;;;;9.48;7.20;;;19.70;31.30;;;;;;5036336;28;20022;-81
2022/03/22 08:25:49;;;;;;;10.40;7.05;;;19.90;30.20;;;;;;5036871;28;20033;-81
2022/03/22 08:28:15;;;;;;;11.70;7.90;;;19.40;29.60;;;;;;5035453;28;20496;-81
2022/03/22 08:30:42;;;;;;;9.15;7.32;;;19.00;30.30;;;;;;5036663;28;20033;-80
2022/03/22 08:33:09;;;;;;;9.05;7.00;;;19.10;30.90;;;;;;5037096;28;20099;-80
2022/03/22 08:35:50;;;;;;;12.32;8.57;;;18.30;32.00;;;;;;5035171;28;20033;-80
2022/03/22 08:38:20;;;;;;;10.10;6.72;;;18.50;32.60;;;;;;5036687;28;20487;-80
2022/03/22 08:40:50;;;;;;;11.52;7.25;;;18.80;32.30;;;;;;5034454;28;20036;-81
2022/03/22 08:43:16;;;;;;;;;;;19.40;30.90;;;;;;5037022;28;20102;-80
2022/03/22 08:45:42;;;;;;;10.05;7.10;;;19.20;30.80;;;;;;5036586;28;19909;-80
2022/03/22 08:48:11;;;;;;;11.00;7.85;;;19.40;30.10;;;;;;5047303;28;20489;-80
2022/03/22 08:50:39;;;;;;;9.65;7.18;;;19.20;29.30;;;;;;5054985;28;20024;-80
2022/03/22 08:53:06;;;;;;;10.45;7.30;;;19.90;29.50;;;;;;5048463;28;20037;-80
2022/03/22 08:55:33;;;;;;;10.25;7.15;;;20.50;29.60;;;;;;5036156;28;20021;-81
2022/03/22 08:58:05;;;;;;;10.93;7.82;;;20.30;28.80;;;;;;5036285;28;20049;-80
2022/03/22 09:00:35;;;;;;;11.85;7.22;;;19.90;28.70;;;;;;5041581;28;20049;-80
2022/03/22 09:03:02;;;;;;;10.20;7.93;;;20.20;28.90;;;;;;5034720;28;20443;-80
2022/03/22 09:08:12;;;;;;;8.93;6.95;;;20.50;28.30;;;;;;5036207;28;20044;-80
2022/03/22 09:10:38;;;;;;;10.63;6.63;;;20.00;28.80;;;;;;5037432;28;20022;-80
2022/03/22 09:13:05;;;;;;;8.50;7.25;;;19.40;29.60;;;;;;5056161;28;20025;-80
2022/03/22 09:15:33;;;;;;;10.85;8.15;;;18.20;31.80;;;;;;5049372;28;20025;-79
2022/03/22 09:17:58;;;;;;;11.70;7.00;;;16.90;33.80;;;;;;5035657;28;20036;-79
2022/03/22 09:20:25;;;;;;;12.38;7.28;;;16.50;35.10;;;;;;5035672;28;20025;-79
2022/03/22 09:22:52;;;;;;;10.93;7.32;;;16.20;35.60;;;;;;5035810;28;20075;-80
2022/03/22 09:25:21;;;;;;;14.10;7.97;;;15.90;36.10;;;;;;5035008;28;20056;-79
2022/03/22 09:27:47;;;;;;;13.20;8.73;;;15.80;37.10;;;;;;5035835;28;20120;-79
2022/03/22 09:30:13;;;;;;;10.68;7.45;;;15.80;36.60;;;;;;5034211;28;20061;-79
2022/03/22 09:32:40;;;;;;;10.88;7.30;;;17.20;35.20;;;;;;5034395;28;20075;-80
2022/03/22 09:35:07;;;;;;;9.30;7.68;;;18.50;33.00;;;;;;5035345;28;20676;-80
2022/03/22 09:37:43;;;;;;;9.88;7.15;;;19.00;31.30;;;;;;5034122;28;20032;-80
2022/03/22 09:40:12;;;;;;;10.15;7.50;;;19.90;31.20;;;;;;5035114;28;20793;-80
2022/03/22 09:42:42;;;;;;;8.98;6.53;;;20.30;30.10;;;;;;5035903;28;20025;-80
2022/03/22 09:45:09;;;;;;;10.07;7.32;;;20.10;30.20;;;;;;5034078;28;20124;-80
2022/03/22 09:47:36;;;;;;;9.23;6.43;;;20.50;30.00;;;;;;5043231;28;20114;-80
2022/03/22 09:50:03;;;;;;;10.20;7.85;;;20.40;30.30;;;;;;5046464;28;20554;-80
2022/03/22 09:52:29;;;;;;;10.80;6.82;;;20.70;30.30;;;;;;5035433;28;20022;-80
2022/03/22 09:54:55;;;;;;;8.77;7.30;;;21.30;29.60;;;;;;5034604;28;20037;-80
2022/03/22 09:57:20;;;;;;;11.40;6.65;;;21.10;29.60;;;;;;5035147;28;20021;-80
2022/03/22 09:59:46;;;;;;;12.38;7.88;;;20.90;30.10;;;;;;5043399;28;20058;-80
2022/03/22 10:02:12;;;;;;;9.70;7.00;;;20.70;30.30;;;;;;5055187;28;20171;-80
2022/03/22 10:04:43;;;;;;;12.88;7.90;;;20.50;30.80;;;;;;5053873;28;20124;-80
2022/03/22 10:07:20;;;;;;;10.13;7.40;;;20.20;31.20;;;;;;5053838;28;20082;-80
2022/03/22 10:10:02;;;;;;;9.05;5.80;;;20.60;29.90;;;;;;5053751;28;20032;-80
2022/03/22 10:12:36;;;;;;;11.23;6.43;;;20.40;30.90;;;;;;5037529;28;20017;-79
2022/03/22 10:15:15;;;;;;;10.75;6.72;;;20.40;31.10;;;;;;5035249;28;20135;-79
2022/03/22 10:17:43;;;;;;;8.90;6.38;;;19.90;30.80;;;;;;5035157;28;20029;-79
2022/03/22 10:20:19;;;;;;;9.27;6.20;;;19.30;32.00;;;;;;5033876;28;20037;-79
2022/03/22 10:22:45;;;;;;;9.05;5.93;;;19.30;32.20;;;;;;5035002;28;20032;-79
2022/03/22 10:25:11;;;;;;;8.10;5.57;;;18.80;33.10;;;;;;5035072;28;20396;-80
2022/03/22 10:27:38;;;;;;;9.73;6.88;;;18.00;34.20;;;;;;5033542;28;20021;-79
2022/03/22 10:30:09;;;;;;;8.82;6.00;;;17.90;35.80;;;;;;5034716;28;20112;-79
2022/03/22 10:32:52;;;;;;;11.50;7.05;;;17.40;35.80;;;;;;5035047;28;20025;-79
2022/03/22 10:35:25;;;;;;;10.35;6.00;;;17.20;35.80;;;;;;5033506;28;20446;-79
2022/03/22 10:37:55;;;;;;;7.32;5.68;;;16.80;36.80;;;;;;5056073;28;20399;-79
2022/03/22 10:40:22;;;;;;;9.25;5.18;;;16.90;38.10;;;;;;5058878;28;20025;-79
2022/03/22 10:42:50;;;;;;;9.80;5.85;;;16.80;37.70;;;;;;5052468;28;20388;-79
2022/03/22 10:45:16;;;;;;;9.60;5.45;;;16.80;37.70;;;;;;5038739;28;20557;-78
2022/03/22 10:47:42;;;;;;;8.85;5.72;;;16.50;37.90;;;;;;5046964;28;20029;-79
2022/03/22 10:50:08;;;;;;;10.45;5.65;;;16.20;38.50;;;;;;5058358;28;20083;-79
2022/03/22 10:52:37;;;;;;;10.30;4.95;;;16.40;38.20;;;;;;5058544;28;20013;-79
2022/03/22 10:55:03;;;;;;;10.02;5.82;;;16.40;39.00;;;;;;5057213;28;20021;-79
2022/03/22 10:57:32;;;;;;;9.60;6.32;;;16.40;38.20;;;;;;5045783;28;20400;-79
2022/03/22 11:00:08;;;;;;;8.98;6.35;;;16.60;38.50;;;;;;5046899;28;20049;-79
2022/03/22 11:02:37;;;;;;;9.40;5.43;;;16.20;38.50;;;;;;5058383;28;20028;-79
2022/03/22 11:05:04;;;;;;;14.55;5.85;;;16.50;39.20;;;;;;5056711;28;20029;-79
2022/03/22 11:07:39;;;;;;;11.10;6.15;;;16.60;39.30;;;;;;5058094;28;20029;-79
2022/03/22 11:10:06;;;;;;;7.38;5.60;;;16.40;39.90;;;;;;5058016;28;20515;-79
2022/03/22 11:12:33;;;;;;;9.80;6.05;;;16.60;40.10;;;;;;5056687;28;20029;-79
2022/03/22 11:15:00;;;;;;;11.75;7.10;;;16.60;39.50;;;;;;5058324;28;20728;-79
2022/03/22 11:17:28;;;;;;;9.27;5.57;;;16.70;39.00;;;;;;5058111;28;20025;-79
2022/03/22 11:19:59;;;;;;;10.95;6.45;;;16.70;39.00;;;;;;5052327;28;20105;-79
2022/03/22 11:22:25;;;;;;;9.50;6.15;;;16.60;39.50;;;;;;5038166;28;20029;-79
2022/03/22 11:24:50;;;;;;;10.27;6.72;;;16.80;39.20;;;;;;5037476;28;20949;-79
2022/03/22 11:27:16;;;;;;;11.50;6.53;;;17.00;39.30;;;;;;5037996;28;20095;-79
2022/03/22 11:29:42;;;;;;;8.77;6.50;;;17.00;38.40;;;;;;5037683;28;20030;-79
2022/03/22 11:34:58;;;;;;;11.93;6.03;;;17.00;39.20;;;;;;5058132;28;20609;-79
2022/03/22 11:37:31;;;;;;;11.50;7.20;;;17.00;38.70;;;;;;5057908;28;20017;-79
2022/03/22 11:42:56;;;;;;;11.88;6.93;;;16.80;38.30;;;;;;5048316;28;20040;-79
2022/03/22 11:45:21;;;;;;;7.68;6.38;;;16.60;38.80;;;;;;5053380;28;20033;-78
2022/03/22 11:47:49;;;;;;;10.80;6.47;;;16.70;38.90;;;;;;5053066;28;20533;-79
2022/03/22 11:50:18;;;;;;;8.15;6.20;;;16.80;38.70;;;;;;5055704;28;20091;-79
2022/03/22 11:52:45;;;;;;;8.75;5.63;;;16.80;39.70;;;;;;5057530;28;20027;-79
2022/03/22 11:55:17;;;;;;;8.23;5.65;;;17.00;39.80;;;;;;5037513;28;20072;-79
2022/03/22 11:57:50;;;;;;;9.68;6.07;;;17.10;39.30;;;;;;5037425;28;20056;-79
2022/03/22 12:00:19;;;;;;;10.52;6.53;;;17.20;39.20;;;;;;5054733;28;20083;-79
2022/03/22 12:02:52;;;;;;;10.77;6.68;;;17.20;38.70;;;;;;5051554;28;20121;-79
2022/03/22 12:05:25;;;;;;;11.93;6.28;;;16.90;38.70;;;;;;5037388;28;20022;-79
2022/03/22 12:07:51;;;;;;;9.82;6.25;;;16.90;39.90;;;;;;5041742;28;20116;-79
2022/03/22 12:10:20;;;;;;;10.93;6.28;;;16.70;39.50;;;;;;5037094;28;20033;-78
2022/03/22 12:12:49;;;;;;;8.50;5.97;;;16.60;39.40;;;;;;5055078;28;20537;-79
2022/03/22 12:15:23;;;;;;;9.40;6.80;;;16.60;39.60;;;;;;5055496;28;20025;-78
2022/03/22 12:17:51;;;;;;;11.57;6.72;;;16.80;39.60;;;;;;5047388;28;20029;-78
2022/03/22 12:20:19;;;;;;;9.40;6.75;;;16.80;39.50;;;;;;5037259;28;20478;-79
2022/03/22 12:22:55;;;;;;;10.98;6.22;;;17.10;39.50;;;;;;5036679;28;20032;-79
2022/03/22 12:25:23;;;;;;;11.55;7.20;;;17.10;39.80;;;;;;5036919;28;20083;-79
2022/03/22 12:27:55;;;;;;;13.85;6.88;;;16.90;39.00;;;;;;5036801;28;20108;-79
2022/03/22 12:30:22;;;;;;;10.60;6.95;;;16.80;39.60;;;;;;5035278;28;20037;-78
2022/03/22 12:32:52;;;;;;;8.85;6.18;;;16.90;39.80;;;;;;5034994;28;20116;-79
2022/03/22 12:35:18;;;;;;;8.18;5.68;;;16.90;39.90;;;;;;5036858;28;20060;-79
2022/03/22 12:37:44;;;;;;;9.73;6.18;;;16.80;39.40;;;;;;5036942;28;20083;-79
2022/03/22 12:40:12;;;;;;;10.40;6.72;;;17.10;39.60;;;;;;5035247;28;20037;-79
2022/03/22 12:42:39;;;;;;;11.85;6.63;;;17.20;39.50;;;;;;5036639;28;20108;-79
2022/03/22 12:45:06;;;;;;;12.05;6.18;;;17.20;39.30;;;;;;5035164;28;20030;-79
2022/03/22 12:47:33;;;;;;;11.18;5.78;;;17.30;39.80;;;;;;5043702;28;20029;-79
2022/03/22 12:49:59;;;;;;;12.02;6.47;;;17.20;37.60;;;;;;5056045;28;20036;-79
2022/03/22 12:52:28;;;;;;;9.52;7.20;;;17.10;38.30;;;;;;5054885;28;20048;-78
2022/03/22 12:54:55;;;;;;;11.35;6.38;;;17.10;39.40;;;;;;5056215;28;20025;-78
2022/03/22 12:57:21;;;;;;;9.40;6.18;;;17.20;39.70;;;;;;5055373;28;20021;-79
2022/03/22 12:59:47;;;;;;;9.18;6.15;;;17.30;39.80;;;;;;5055112;28;20053;-79
2022/03/22 13:02:14;;;;;;;12.98;6.47;;;17.30;38.40;;;;;;5054642;28;20021;-79
2022/03/22 13:04:49;;;;;;;12.70;6.10;;;17.20;37.60;;;;;;5056152;28;20033;-79
2022/03/22 13:07:19;;;;;;;10.25;6.32;;;17.00;38.40;;;;;;5049936;28;20513;-79
2022/03/22 13:12:33;;;;;;;12.60;6.18;;;17.10;39.70;;;;;;5053140;28;19959;-79
2022/03/22 13:15:14;;;;;;;8.68;6.00;;;17.10;38.90;;;;;;5055960;28;20025;-79